createdAt,value
2022-07-28T00:00:06.263Z,97092.59
2022-07-28T00:02:35.277Z,97092.72
2022-07-28T00:05:01.914Z,97095.53
2022-07-28T00:07:28.446Z,97094.25
2022-07-28T00:10:00.180Z,97096.13
2022-07-28T00:12:28.841Z,97099.06
2022-07-28T00:14:55.434Z,97098.28
2022-07-28T00:17:21.970Z,97091.38
2022-07-28T00:19:48.847Z,97098.84
2022-07-28T00:22:15.369Z,97102.97
2022-07-28T00:24:42.260Z,97105.28
2022-07-28T00:27:09.219Z,97106.66
2022-07-28T00:29:49.864Z,97097.56
2022-07-28T00:32:18.196Z,97099.66
2022-07-28T00:34:45.780Z,97096.44
2022-07-28T00:37:14.486Z,97094.47
2022-07-28T00:39:41.704Z,97091.41
2022-07-28T00:42:08.491Z,97091.69
2022-07-28T00:44:35.020Z,97085.72
2022-07-28T00:47:01.664Z,97085.41
2022-07-28T00:49:28.952Z,97085.63
2022-07-28T00:51:55.544Z,97078.16
2022-07-28T00:54:22.190Z,97076.78
2022-07-28T00:56:49.877Z,97081.66
2022-07-28T00:59:16.396Z,97067.50
2022-07-28T01:01:43.136Z,97067.56
2022-07-28T01:04:09.721Z,97066.94
2022-07-28T01:06:54.522Z,97063.69
2022-07-28T01:09:58.442Z,97062.34
2022-07-28T01:13:18.883Z,97063.88
2022-07-28T01:16:11.145Z,97061.63
2022-07-28T01:18:46.698Z,97043.91
2022-07-28T01:21:17.901Z,97044.91
2022-07-28T01:24:13.788Z,97044.19
2022-07-28T01:26:51.288Z,97044.38
2022-07-28T01:29:20.514Z,97050.28
2022-07-28T01:31:56.323Z,97053.38
2022-07-28T01:34:33.202Z,97049.03
2022-07-28T01:37:07.265Z,97041.09
2022-07-28T01:39:37.600Z,97047.19
2022-07-28T01:42:07.348Z,97039.25
2022-07-28T01:44:40.887Z,97041.59
2022-07-28T01:47:09.286Z,97041.34
2022-07-28T01:49:37.891Z,97031.56
2022-07-28T01:52:07.174Z,97030.44
2022-07-28T01:54:37.400Z,97030.84
2022-07-28T01:57:05.539Z,97028.06
2022-07-28T01:59:35.917Z,97028.47
2022-07-28T02:02:03.338Z,97033.09
2022-07-28T02:04:33.356Z,97033.78
2022-07-28T02:07:02.600Z,97036.34
2022-07-28T02:09:30.788Z,97029.75
2022-07-28T02:11:58.092Z,97026.53
2022-07-28T02:14:27.507Z,97028.22
2022-07-28T02:17:11.192Z,97023.22
2022-07-28T02:19:39.500Z,97028.13
2022-07-28T02:22:06.900Z,97016.78
2022-07-28T02:24:35.472Z,97019.34
2022-07-28T02:27:13.706Z,97013.78
2022-07-28T02:29:51.437Z,97011.78
2022-07-28T02:32:32.178Z,97011.50
2022-07-28T02:35:06.834Z,97023.13
2022-07-28T02:37:41.283Z,97021.75
2022-07-28T02:40:14.142Z,97022.84
2022-07-28T02:42:41.925Z,97024.25
2022-07-28T02:45:11.741Z,97018.09
2022-07-28T02:47:44.097Z,97024.97
2022-07-28T02:50:12.656Z,97019.94
2022-07-28T02:52:41.803Z,97021.03
2022-07-28T02:55:10.680Z,97020.06
2022-07-28T02:57:40.390Z,97024.00
2022-07-28T03:00:07.680Z,97025.09
2022-07-28T03:02:36.748Z,97020.78
2022-07-28T03:05:11.116Z,97022.72
2022-07-28T03:07:41.241Z,97027.03
2022-07-28T03:10:19.558Z,97020.31
2022-07-28T03:13:01.074Z,97026.91
2022-07-28T03:15:27.740Z,97027.06
2022-07-28T03:17:54.277Z,97034.88
2022-07-28T03:20:20.839Z,97034.72
2022-07-28T03:22:47.386Z,97042.00
2022-07-28T03:25:23.346Z,97036.84
2022-07-28T03:27:52.702Z,97036.69
2022-07-28T03:30:29.525Z,97036.53
2022-07-28T03:32:59.839Z,97039.63
2022-07-28T03:35:27.405Z,97038.09
2022-07-28T03:38:10.871Z,97044.09
2022-07-28T03:40:38.709Z,97043.97
2022-07-28T03:43:08.307Z,97049.56
2022-07-28T03:45:35.640Z,97043.97
2022-07-28T03:48:02.382Z,97044.25
2022-07-28T03:50:31.832Z,97043.94
2022-07-28T03:53:00.223Z,97048.16
2022-07-28T03:55:27.076Z,97047.03
2022-07-28T03:57:53.677Z,97041.03
2022-07-28T04:00:20.892Z,97042.41
2022-07-28T04:02:47.686Z,97044.81
2022-07-28T04:05:17.017Z,97049.41
2022-07-28T04:07:44.506Z,97053.19
2022-07-28T04:10:13.444Z,97049.66
2022-07-28T04:12:57.222Z,97049.97
2022-07-28T04:15:25.893Z,97044.34
2022-07-28T04:17:53.948Z,97048.25
2022-07-28T04:20:23.232Z,97046.31
2022-07-28T04:22:50.542Z,97046.53
2022-07-28T04:25:18.713Z,97049.22
2022-07-28T04:27:45.799Z,97050.09
2022-07-28T04:30:17.265Z,97042.38
2022-07-28T04:32:49.097Z,97040.56
2022-07-28T04:35:17.648Z,97039.72
2022-07-28T04:37:45.347Z,97047.41
2022-07-28T04:40:13.515Z,97043.44
2022-07-28T04:42:40.870Z,97050.72
2022-07-28T04:45:09.835Z,97045.50
2022-07-28T04:47:37.029Z,97055.56
2022-07-28T04:50:05.044Z,97048.38
2022-07-28T04:52:31.634Z,97047.47
2022-07-28T04:54:58.205Z,97042.94
2022-07-28T04:57:28.004Z,97044.47
2022-07-28T04:59:56.647Z,97051.63
2022-07-28T05:02:23.421Z,97046.59
2022-07-28T05:04:50.569Z,97046.09
2022-07-28T05:07:17.236Z,97048.47
2022-07-28T05:09:43.934Z,97047.66
2022-07-28T05:12:10.917Z,97048.69
2022-07-28T05:14:37.532Z,97051.53
2022-07-28T05:17:04.408Z,97049.44
2022-07-28T05:19:31.052Z,97049.69
2022-07-28T05:21:57.546Z,97047.50
2022-07-28T05:24:24.174Z,97042.47
2022-07-28T05:26:50.752Z,97047.44
2022-07-28T05:29:17.275Z,97056.03
2022-07-28T05:31:43.869Z,97050.94
2022-07-28T05:34:10.543Z,97060.25
2022-07-28T05:36:38.369Z,97054.47
2022-07-28T05:39:05.021Z,97055.06
2022-07-28T05:41:31.540Z,97053.94
2022-07-28T05:43:58.495Z,97043.97
2022-07-28T05:46:25.075Z,97051.25
2022-07-28T05:48:51.976Z,97046.63
2022-07-28T05:51:19.209Z,97051.16
2022-07-28T05:53:45.736Z,97040.81
2022-07-28T05:56:14.350Z,97049.00
2022-07-28T05:58:40.900Z,97046.34
2022-07-28T06:01:07.532Z,97060.84
2022-07-28T06:03:39.792Z,97052.72
2022-07-28T06:06:16.021Z,97056.97
2022-07-28T06:08:43.901Z,97057.03
2022-07-28T06:11:11.710Z,97054.44
2022-07-28T06:13:39.727Z,97057.75
2022-07-28T06:16:11.186Z,97059.47
2022-07-28T06:18:39.665Z,97064.25
2022-07-28T06:21:06.341Z,97060.94
2022-07-28T06:23:32.845Z,97041.38
2022-07-28T06:25:59.412Z,97047.63
2022-07-28T06:28:25.954Z,97051.22
2022-07-28T06:30:52.487Z,97042.50
2022-07-28T06:33:19.176Z,97046.84
2022-07-28T06:35:48.321Z,97043.09
2022-07-28T06:38:19.537Z,97044.81
2022-07-28T06:40:46.403Z,97042.47
2022-07-28T06:43:14.652Z,97048.03
2022-07-28T06:45:41.434Z,97049.25
2022-07-28T06:48:09.343Z,97048.97
2022-07-28T06:50:41.511Z,97043.72
2022-07-28T06:53:09.508Z,97047.03
2022-07-28T06:55:37.745Z,97048.97
2022-07-28T06:58:04.955Z,97032.63
2022-07-28T07:00:32.108Z,97043.25
2022-07-28T07:03:00.627Z,97043.56
2022-07-28T07:05:32.405Z,97038.34
2022-07-28T07:08:00.610Z,97036.84
2022-07-28T07:10:27.384Z,97030.38
2022-07-28T07:12:54.065Z,97024.53
2022-07-28T07:15:21.944Z,97026.78
2022-07-28T07:17:48.710Z,97023.59
2022-07-28T07:20:18.162Z,97024.25
2022-07-28T07:22:46.364Z,97024.00
2022-07-28T07:25:16.560Z,97015.75
2022-07-28T07:27:44.079Z,97010.56
2022-07-28T07:30:12.865Z,97003.75
2022-07-28T07:32:40.404Z,97011.22
2022-07-28T07:35:07.353Z,97022.69
2022-07-28T07:37:34.025Z,97014.56
2022-07-28T07:40:01.460Z,97016.41
2022-07-28T07:42:28.130Z,97001.66
2022-07-28T07:44:55.094Z,97005.19
2022-07-28T07:47:21.636Z,97003.75
2022-07-28T07:49:49.478Z,97002.50
2022-07-28T07:52:16.055Z,97006.56
2022-07-28T07:54:43.017Z,97003.59
2022-07-28T07:57:10.431Z,97006.94
2022-07-28T07:59:37.068Z,96995.63
2022-07-28T08:02:04.291Z,97001.03
2022-07-28T08:04:30.932Z,96998.69
2022-07-28T08:06:57.546Z,97003.59
2022-07-28T08:09:24.228Z,97001.34
2022-07-28T08:11:52.267Z,96990.59
2022-07-28T08:14:18.991Z,96996.44
2022-07-28T08:16:45.594Z,96993.63
2022-07-28T08:19:12.473Z,96984.41
2022-07-28T08:21:40.509Z,96992.66
2022-07-28T08:24:07.491Z,97002.25
2022-07-28T08:26:35.688Z,96990.28
2022-07-28T08:29:02.231Z,96994.31
2022-07-28T08:31:28.837Z,96991.88
2022-07-28T08:33:58.414Z,96993.03
2022-07-28T08:36:25.118Z,96990.72
2022-07-28T08:38:51.948Z,96998.56
2022-07-28T08:41:48.572Z,96985.97
2022-07-28T08:44:18.754Z,96981.56
2022-07-28T08:46:48.721Z,96999.19
2022-07-28T08:49:16.110Z,96989.53
2022-07-28T08:51:49.686Z,96981.84
2022-07-28T08:54:20.305Z,96990.19
2022-07-28T08:56:48.030Z,96990.84
2022-07-28T08:59:15.340Z,96982.72
2022-07-28T09:01:42.315Z,96988.97
2022-07-28T09:04:09.328Z,96985.47
2022-07-28T09:06:42.012Z,96989.56
2022-07-28T09:09:09.872Z,96975.34
2022-07-28T09:11:37.641Z,96973.31
2022-07-28T09:14:05.627Z,96973.69
2022-07-28T09:16:32.445Z,96974.75
2022-07-28T09:18:59.100Z,96975.34
2022-07-28T09:21:25.675Z,96985.22
2022-07-28T09:23:53.307Z,96974.25
2022-07-28T09:26:19.987Z,96977.06
2022-07-28T09:28:55.435Z,96980.78
2022-07-28T09:31:23.365Z,96984.88
2022-07-28T09:34:08.238Z,96980.25
2022-07-28T09:36:40.736Z,96965.03
2022-07-28T09:39:07.720Z,96977.41
2022-07-28T09:41:55.183Z,96971.59
2022-07-28T09:44:23.462Z,96967.41
2022-07-28T09:46:51.064Z,96976.28
2022-07-28T09:49:17.998Z,96965.91
2022-07-28T09:52:05.588Z,96959.31
2022-07-28T09:54:33.559Z,96968.00
2022-07-28T09:57:01.948Z,96946.03
2022-07-28T09:59:44.170Z,96962.63
2022-07-28T10:02:27.164Z,96954.47
2022-07-28T10:04:54.370Z,96953.75
2022-07-28T10:07:21.771Z,96953.25
2022-07-28T10:10:20.220Z,96939.28
2022-07-28T10:12:46.989Z,96947.63
2022-07-28T10:15:34.867Z,96939.09
2022-07-28T10:18:01.893Z,96939.81
2022-07-28T10:20:29.032Z,96950.75
2022-07-28T10:23:02.622Z,96948.38
2022-07-28T10:25:32.872Z,96931.25
2022-07-28T10:28:02.398Z,96936.97
2022-07-28T10:30:31.650Z,96930.59
2022-07-28T10:32:59.838Z,96934.88
2022-07-28T10:35:28.047Z,96934.78
2022-07-28T10:37:59.495Z,96934.66
2022-07-28T10:40:29.835Z,96925.56
2022-07-28T10:42:56.754Z,96923.97
2022-07-28T10:45:32.653Z,96937.69
2022-07-28T10:48:09.183Z,96936.44
2022-07-28T10:50:39.005Z,96932.66
2022-07-28T10:53:07.954Z,96926.41
2022-07-28T10:55:38.368Z,96924.94
2022-07-28T10:59:06.161Z,96928.75
2022-07-28T11:01:50.168Z,96928.78
2022-07-28T11:04:41.693Z,96925.16
2022-07-28T11:07:13.079Z,96930.44
2022-07-28T11:09:40.121Z,96925.84
2022-07-28T11:12:09.755Z,96929.19
2022-07-28T11:14:39.495Z,96918.94
2022-07-28T11:17:10.444Z,96918.47
2022-07-28T11:22:34.305Z,96923.13
2022-07-28T11:25:20.846Z,96914.47
2022-07-28T11:27:50.288Z,96913.44
2022-07-28T11:30:21.250Z,96912.25
2022-07-28T11:32:50.760Z,96913.88
2022-07-28T11:35:19.400Z,96909.63
2022-07-28T11:38:01.116Z,96908.84
2022-07-28T11:40:35.096Z,96914.03
2022-07-28T11:43:33.999Z,96912.44
2022-07-28T11:46:07.603Z,96909.31
2022-07-28T11:48:37.704Z,96902.38
2022-07-28T11:51:04.317Z,96898.72
2022-07-28T11:53:49.911Z,96891.69
2022-07-28T11:56:24.507Z,96895.50
2022-07-28T11:58:59.622Z,96905.63
2022-07-28T12:01:27.098Z,96887.84
2022-07-28T12:03:56.820Z,96891.19
2022-07-28T12:06:36.693Z,96897.56
2022-07-28T12:09:06.210Z,96887.06
2022-07-28T12:11:38.042Z,96876.28
2022-07-28T12:14:09.500Z,96882.50
2022-07-28T12:16:39.848Z,96880.59
2022-07-28T12:19:08.017Z,96876.69
2022-07-28T12:21:46.147Z,96871.81
2022-07-28T12:24:21.037Z,96871.13
2022-07-28T12:26:49.931Z,96872.84
2022-07-28T12:29:17.788Z,96876.06
2022-07-28T12:32:12.944Z,96875.00
2022-07-28T12:34:44.374Z,96871.47
2022-07-28T12:37:14.011Z,96868.63
2022-07-28T12:39:42.957Z,96861.66
2022-07-28T12:42:11.477Z,96864.38
2022-07-28T12:44:43.714Z,96863.88
2022-07-28T12:47:15.971Z,96861.00
2022-07-28T12:49:44.656Z,96860.94
2022-07-28T12:52:22.912Z,96862.19
2022-07-28T12:54:53.716Z,96850.72
2022-07-28T12:57:51.622Z,96855.03
2022-07-28T13:00:24.646Z,96847.69
2022-07-28T13:02:53.433Z,96851.75
2022-07-28T13:05:56.082Z,96848.41
2022-07-28T13:08:24.246Z,96844.75
2022-07-28T13:10:57.195Z,96845.06
2022-07-28T13:13:25.289Z,96835.84
2022-07-28T13:16:14.670Z,96833.31
2022-07-28T13:18:50.146Z,96830.28
2022-07-28T13:21:36.610Z,96828.56
2022-07-28T13:24:03.696Z,96819.19
2022-07-28T13:26:31.784Z,96819.94
2022-07-28T13:29:02.369Z,96814.72
2022-07-28T13:31:32.255Z,96810.81
2022-07-28T13:33:59.290Z,96816.56
2022-07-28T13:36:25.814Z,96822.78
2022-07-28T13:38:55.214Z,96822.03
2022-07-28T13:41:21.874Z,96819.25
2022-07-28T13:43:49.135Z,96822.88
2022-07-28T13:46:20.886Z,96815.09
2022-07-28T13:48:57.654Z,96805.53
2022-07-28T13:51:24.757Z,96801.84
2022-07-28T13:53:51.736Z,96813.91
2022-07-28T13:56:36.787Z,96803.69
2022-07-28T13:59:08.661Z,96805.84
2022-07-28T14:01:36.284Z,96805.75
2022-07-28T14:04:04.436Z,96807.19
2022-07-28T14:06:30.983Z,96793.91
2022-07-28T14:08:57.769Z,96794.44
2022-07-28T14:11:24.744Z,96788.41
2022-07-28T14:13:54.086Z,96793.38
2022-07-28T14:16:22.047Z,96792.94
2022-07-28T14:18:49.449Z,96784.84
2022-07-28T14:21:16.945Z,96798.06
2022-07-28T14:23:45.804Z,96800.44
2022-07-28T14:26:35.053Z,96782.34
2022-07-28T14:29:01.960Z,96782.50
2022-07-28T14:31:29.580Z,96784.59
2022-07-28T14:33:56.805Z,96781.50
2022-07-28T14:36:23.332Z,96780.13
2022-07-28T14:38:53.597Z,96776.59
2022-07-28T14:41:20.604Z,96777.75
2022-07-28T14:43:47.186Z,96772.44
2022-07-28T14:46:20.660Z,96765.25
2022-07-28T14:48:48.027Z,96769.50
2022-07-28T14:51:14.633Z,96772.63
2022-07-28T14:53:43.442Z,96769.34
2022-07-28T14:56:18.217Z,96766.50
2022-07-28T14:58:44.822Z,96764.03
2022-07-28T15:01:11.422Z,96754.25
2022-07-28T15:03:38.033Z,96760.22
2022-07-28T15:06:10.222Z,96756.22
2022-07-28T15:08:36.743Z,96761.50
2022-07-28T15:11:03.417Z,96754.47
2022-07-28T15:13:29.970Z,96754.56
2022-07-28T15:15:57.039Z,96745.56
2022-07-28T15:18:24.506Z,96761.91
2022-07-28T15:20:51.335Z,96760.59
2022-07-28T15:23:17.948Z,96743.53
2022-07-28T15:25:46.440Z,96745.13
2022-07-28T15:28:17.524Z,96739.41
2022-07-28T15:30:51.656Z,96749.59
2022-07-28T15:33:20.431Z,96746.88
2022-07-28T15:35:58.113Z,96744.25
2022-07-28T15:38:27.742Z,96736.97
2022-07-28T15:40:55.016Z,96730.44
2022-07-28T15:43:23.619Z,96724.88
2022-07-28T15:45:50.696Z,96731.84
2022-07-28T15:48:17.289Z,96725.91
2022-07-28T15:50:45.504Z,96721.13
2022-07-28T15:53:12.076Z,96724.34
2022-07-28T15:55:38.876Z,96715.41
2022-07-28T15:58:05.501Z,96702.25
2022-07-28T16:00:33.824Z,96715.19
2022-07-28T16:03:01.483Z,96713.91
2022-07-28T16:05:28.677Z,96704.38
2022-07-28T16:07:58.366Z,96710.97
2022-07-28T16:10:27.115Z,96712.84
2022-07-28T16:12:55.924Z,96708.94
2022-07-28T16:15:24.969Z,96719.41
2022-07-28T16:17:51.492Z,96714.56
2022-07-28T16:20:18.052Z,96716.75
2022-07-28T16:22:44.628Z,96703.81
2022-07-28T16:25:16.520Z,96700.22
2022-07-28T16:27:44.613Z,96707.09
2022-07-28T16:30:11.631Z,96700.16
2022-07-28T16:32:39.343Z,96691.25
2022-07-28T16:35:07.272Z,96694.19
2022-07-28T16:37:35.512Z,96696.28
2022-07-28T16:40:04.711Z,96685.56
2022-07-28T16:42:32.156Z,96695.69
2022-07-28T16:44:58.951Z,96690.09
2022-07-28T16:47:25.897Z,96701.44
2022-07-28T16:49:52.389Z,96707.81
2022-07-28T16:52:20.911Z,96715.56
2022-07-28T16:54:47.764Z,96712.47
2022-07-28T16:57:14.846Z,96713.09
2022-07-28T16:59:48.116Z,96711.50
2022-07-28T17:02:15.491Z,96724.06
2022-07-28T17:04:42.470Z,96719.75
2022-07-28T17:07:13.473Z,96715.38
2022-07-28T17:09:41.523Z,96719.66
2022-07-28T17:12:09.248Z,96723.72
2022-07-28T17:14:40.854Z,96722.75
2022-07-28T17:17:07.463Z,96723.78
2022-07-28T17:19:33.972Z,96726.50
2022-07-28T17:22:01.941Z,96723.72
2022-07-28T17:24:28.524Z,96719.38
2022-07-28T17:29:42.695Z,96718.50
2022-07-28T17:32:09.532Z,96732.78
2022-07-28T17:34:37.551Z,96725.16
2022-07-28T17:37:05.185Z,96725.78
2022-07-28T17:39:32.210Z,96729.06
2022-07-28T17:41:58.962Z,96736.38
2022-07-28T17:44:25.759Z,96730.66
2022-07-28T17:46:52.343Z,96724.50
2022-07-28T17:49:19.080Z,96724.84
2022-07-28T17:51:45.680Z,96720.59
2022-07-28T17:54:15.548Z,96714.16
2022-07-28T17:56:42.557Z,96722.91
2022-07-28T17:59:10.470Z,96730.19
2022-07-28T18:01:38.967Z,96723.41
2022-07-28T18:04:08.958Z,96740.38
2022-07-28T18:06:37.182Z,96739.53
2022-07-28T18:09:07.896Z,96752.13
2022-07-28T18:11:57.610Z,96751.91
2022-07-28T18:14:27.168Z,96751.88
2022-07-28T18:16:53.786Z,96762.09
2022-07-28T18:19:20.335Z,96764.22
2022-07-28T18:21:46.812Z,96775.50
2022-07-28T18:24:13.684Z,96781.19
2022-07-28T18:26:40.772Z,96782.59
2022-07-28T18:29:07.742Z,96783.34
2022-07-28T18:31:34.295Z,96792.28
2022-07-28T18:34:00.898Z,96796.25
2022-07-28T18:36:27.409Z,96798.53
2022-07-28T18:38:53.967Z,96801.47
2022-07-28T18:41:20.501Z,96794.66
2022-07-28T18:43:47.012Z,96799.63
2022-07-28T18:46:13.892Z,96792.78
2022-07-28T18:48:40.500Z,96800.06
2022-07-28T18:51:07.222Z,96802.28
2022-07-28T18:53:33.836Z,96804.56
2022-07-28T18:56:00.361Z,96799.97
2022-07-28T18:58:26.877Z,96804.13
2022-07-28T19:00:54.654Z,96800.59
2022-07-28T19:03:21.298Z,96798.91
2022-07-28T19:05:47.871Z,96797.38
2022-07-28T19:08:14.449Z,96803.78
2022-07-28T19:10:40.964Z,96801.03
2022-07-28T19:13:12.344Z,96806.97
2022-07-28T19:15:40.853Z,96815.78
2022-07-28T19:18:09.869Z,96812.66
2022-07-28T19:20:37.105Z,96809.69
2022-07-28T19:23:05.458Z,96819.28
2022-07-28T19:25:32.433Z,96829.75
2022-07-28T19:27:59.067Z,96839.44
2022-07-28T19:30:25.655Z,96850.34
2022-07-28T19:32:52.202Z,96855.81
2022-07-28T19:35:18.973Z,96858.41
2022-07-28T19:37:45.601Z,96861.22
2022-07-28T19:40:13.314Z,96862.22
2022-07-28T19:42:39.902Z,96865.31
2022-07-28T19:45:07.296Z,96866.63
2022-07-28T19:47:36.904Z,96862.81
2022-07-28T19:50:05.175Z,96865.00
2022-07-28T19:52:31.966Z,96866.22
2022-07-28T19:54:58.499Z,96871.19
2022-07-28T19:57:26.706Z,96865.75
2022-07-28T19:59:53.257Z,96870.03
2022-07-28T20:02:19.851Z,96870.41
2022-07-28T20:04:46.480Z,96869.50
2022-07-28T20:07:12.974Z,96871.19
2022-07-28T20:09:39.836Z,96872.19
2022-07-28T20:12:07.820Z,96865.81
2022-07-28T20:14:36.181Z,96867.19
2022-07-28T20:17:02.850Z,96858.69
2022-07-28T20:19:30.107Z,96858.03
2022-07-28T20:21:57.253Z,96860.09
2022-07-28T20:24:24.043Z,96853.59
2022-07-28T20:26:50.568Z,96852.31
2022-07-28T20:29:17.142Z,96863.06
2022-07-28T20:31:43.909Z,96861.50
2022-07-28T20:34:12.977Z,96863.63
2022-07-28T20:36:39.719Z,96864.66
2022-07-28T20:39:27.400Z,96863.78
2022-07-28T20:41:52.821Z,96859.94
2022-07-28T20:44:28.719Z,96854.25
2022-07-28T20:46:58.621Z,96854.91
2022-07-28T20:49:25.286Z,96844.16
2022-07-28T20:51:51.865Z,96852.06
2022-07-28T20:54:19.002Z,96855.66
2022-07-28T20:56:45.600Z,96853.22
2022-07-28T20:59:12.184Z,96864.13
2022-07-28T21:01:39.193Z,96858.78
2022-07-28T21:04:05.979Z,96866.63
2022-07-28T21:06:37.912Z,96873.94
2022-07-28T21:09:05.172Z,96867.19
2022-07-28T21:11:34.957Z,96865.25
2022-07-28T21:14:02.074Z,96874.56
2022-07-28T21:16:29.296Z,96879.66
2022-07-28T21:18:55.987Z,96878.16
2022-07-28T21:21:22.897Z,96890.09
2022-07-28T21:23:49.791Z,96892.22
2022-07-28T21:26:16.990Z,96892.56
2022-07-28T21:29:02.129Z,96891.81
2022-07-28T21:31:28.669Z,96889.84
2022-07-28T21:33:55.381Z,96894.72
2022-07-28T21:36:22.046Z,96887.19
2022-07-28T21:38:49.241Z,96895.91
2022-07-28T21:41:16.334Z,96895.09
2022-07-28T21:43:42.818Z,96908.16
2022-07-28T21:46:09.494Z,96911.34
2022-07-28T21:48:36.157Z,96912.19
2022-07-28T21:51:02.798Z,96904.81
2022-07-28T21:53:29.359Z,96907.84
2022-07-28T21:55:57.177Z,96912.19
2022-07-28T21:58:24.382Z,96925.78
2022-07-28T22:00:50.998Z,96924.47
2022-07-28T22:03:17.543Z,96928.97
2022-07-28T22:05:44.127Z,96928.78
2022-07-28T22:08:10.862Z,96933.16
2022-07-28T22:10:37.369Z,96936.44
2022-07-28T22:13:04.021Z,96941.69
2022-07-28T22:15:30.563Z,96944.53
2022-07-28T22:17:57.137Z,96953.16
2022-07-28T22:20:23.682Z,96960.34
2022-07-28T22:22:50.268Z,96963.06
2022-07-28T22:25:16.812Z,96965.25
2022-07-28T22:27:43.330Z,96971.63
2022-07-28T22:30:10.151Z,96965.56
2022-07-28T22:32:36.764Z,96981.63
2022-07-28T22:35:04.489Z,96979.78
2022-07-28T22:37:31.071Z,96984.50
2022-07-28T22:39:57.622Z,96990.34
2022-07-28T22:42:24.175Z,96994.66
2022-07-28T22:44:50.699Z,96988.81
2022-07-28T22:47:17.311Z,96990.63
2022-07-28T22:49:43.892Z,96995.94
2022-07-28T22:52:10.418Z,96999.97
2022-07-28T22:54:40.393Z,97001.84
2022-07-28T22:57:07.231Z,97016.03
2022-07-28T22:59:35.047Z,97016.06
2022-07-28T23:02:06.775Z,97019.41
2022-07-28T23:04:33.573Z,97015.22
2022-07-28T23:07:00.822Z,97005.84
2022-07-28T23:09:27.532Z,97016.22
2022-07-28T23:11:56.484Z,97024.44
2022-07-28T23:14:25.296Z,97017.41
2022-07-28T23:16:51.798Z,97018.53
2022-07-28T23:19:18.724Z,97019.41
2022-07-28T23:21:45.450Z,97031.25
2022-07-28T23:24:12.846Z,97026.22
2022-07-28T23:26:39.657Z,97027.16
2022-07-28T23:29:06.218Z,97031.53
2022-07-28T23:31:32.850Z,97037.56
2022-07-28T23:33:59.658Z,97026.13
2022-07-28T23:36:27.742Z,97021.25
2022-07-28T23:38:57.525Z,97023.13
2022-07-28T23:41:24.429Z,97019.72
2022-07-28T23:43:52.290Z,97027.09
2022-07-28T23:46:19.491Z,97024.31
2022-07-28T23:48:47.710Z,97021.78
2022-07-28T23:51:21.528Z,97026.66
2022-07-28T23:53:54.355Z,97021.31
2022-07-28T23:56:28.395Z,97023.44
2022-07-28T23:58:54.975Z,97020.31
